createdAt,value
2019-05-16T00:03:20.652Z,16.95
2019-05-16T00:06:50.709Z,16.68
2019-05-16T00:10:21.129Z,16.71
2019-05-16T00:13:51.138Z,16.8
2019-05-16T00:17:21.182Z,16.69
2019-05-16T00:20:51.321Z,16.48
2019-05-16T00:24:21.438Z,16.15
2019-05-16T00:27:51.560Z,16.04
2019-05-16T00:31:21.601Z,15.82
2019-05-16T00:34:51.694Z,15.92
2019-05-16T00:38:21.784Z,15.83
2019-05-16T00:41:51.781Z,15.62
2019-05-16T00:45:21.952Z,15.56
2019-05-16T00:48:52.065Z,15.69
2019-05-16T00:52:22.172Z,15.83
2019-05-16T00:55:52.965Z,15.89
2019-05-16T00:59:23.096Z,15.81
2019-05-16T01:00:44.193Z,15.82
2019-05-16T01:04:14.224Z,15.83
2019-05-16T01:07:44.307Z,15.9
2019-05-16T01:11:14.447Z,15.89
2019-05-16T01:14:44.614Z,15.93
2019-05-16T01:18:14.748Z,15.97
2019-05-16T01:21:44.845Z,16.08
2019-05-16T01:25:15.088Z,16.12
2019-05-16T01:28:45.458Z,16.17
2019-05-16T01:32:15.528Z,16.11
2019-05-16T01:35:47.642Z,16.21
2019-05-16T01:39:18.301Z,16.12
2019-05-16T01:42:49.011Z,16.15
2019-05-16T01:46:19.186Z,16.19
2019-05-16T01:49:49.230Z,16.09
2019-05-16T03:26:52.526Z,15.99
2019-05-16T03:30:24.153Z,16.04
2019-05-16T03:33:59.859Z,16.12
2019-05-16T03:37:53.931Z,16.18
2019-05-16T03:41:26.157Z,16.17
2019-05-16T03:44:56.362Z,16.15
2019-05-16T03:48:26.447Z,16.05
2019-05-16T03:51:56.429Z,16.11
2019-05-16T03:55:26.528Z,16.21
2019-05-16T03:58:56.614Z,16.42
2019-05-16T04:02:26.732Z,16.56
2019-05-16T04:05:56.734Z,16.6
2019-05-16T04:09:26.825Z,16.73
2019-05-16T04:12:56.839Z,16.86
2019-05-16T04:16:26.935Z,17.09
2019-05-16T04:19:56.978Z,17.3
2019-05-16T04:23:27.046Z,17.4
2019-05-16T04:26:57.163Z,17.48
2019-05-16T04:30:31.011Z,17.43
2019-05-16T04:34:01.443Z,17.56
2019-05-16T04:37:31.614Z,17.56
2019-05-16T04:41:01.773Z,17.65
2019-05-16T04:44:32.029Z,17.68
2019-05-16T04:48:02.206Z,17.74
2019-05-16T04:51:32.322Z,17.79
2019-05-16T04:55:02.607Z,17.78
2019-05-16T04:58:32.791Z,17.88
2019-05-16T05:00:16.862Z,17.89
2019-05-16T05:04:02.120Z,17.8
2019-05-16T05:07:40.713Z,17.75
2019-05-16T05:11:10.929Z,17.73
2019-05-16T05:14:41.650Z,17.73
2019-05-16T05:18:11.809Z,17.69
2019-05-16T05:21:41.994Z,17.63
2019-05-16T05:25:12.182Z,17.55
2019-05-16T05:28:42.314Z,17.32
2019-05-16T05:32:14.359Z,17.27
2019-05-16T05:35:44.726Z,17.23
2019-05-16T05:39:15.633Z,17.15
2019-05-16T05:42:45.877Z,16.94
2019-05-16T05:46:15.907Z,16.67
2019-05-16T05:49:46.158Z,16.38
2019-05-16T05:53:16.187Z,16.14
2019-05-16T05:56:46.459Z,15.85
2019-05-16T06:00:16.952Z,15.7
2019-05-16T06:03:46.973Z,15.64
2019-05-16T06:07:17.170Z,15.57
2019-05-16T06:10:47.360Z,15.58
2019-05-16T06:14:17.439Z,15.69
2019-05-16T06:17:47.395Z,15.8
2019-05-16T06:21:20.082Z,15.91
2019-05-16T06:24:50.652Z,15.98
2019-05-16T06:28:21.288Z,16.07
2019-05-16T06:31:51.562Z,16.17
2019-05-16T06:35:24.095Z,16.29
2019-05-16T06:38:54.339Z,16.67
2019-05-16T06:42:24.327Z,16.86
2019-05-16T06:45:54.338Z,17.08
2019-05-16T06:49:24.438Z,17.37
2019-05-16T06:52:54.475Z,17.63
2019-05-16T06:56:24.474Z,18.01
2019-05-16T06:59:54.584Z,18.08
2019-05-16T07:00:16.640Z,18.04
2019-05-16T07:03:46.883Z,18.05
2019-05-16T07:07:16.872Z,18.14
2019-05-16T07:10:47.059Z,18.17
2019-05-16T07:14:17.217Z,18.17
2019-05-16T07:17:47.389Z,18.17
2019-05-16T07:21:19.984Z,18.7
2019-05-16T07:24:50.529Z,19.25
2019-05-16T07:28:21.178Z,19.36
2019-05-16T07:31:52.398Z,19.46
2019-05-16T07:35:22.700Z,19.12
2019-05-16T07:38:52.743Z,19.1
2019-05-16T07:42:22.932Z,19.44
2019-05-16T07:45:53.037Z,19.52
2019-05-16T07:49:23.159Z,20.06
2019-05-16T07:52:53.177Z,20.48
2019-05-16T07:56:23.237Z,20.92
2019-05-16T07:59:53.307Z,21.21
2019-05-16T08:03:23.340Z,21.46
2019-05-16T08:06:53.412Z,21.59
2019-05-16T08:10:36.926Z,21.24
2019-05-16T08:14:11.783Z,21.11
2019-05-16T08:17:44.492Z,21.19
2019-05-16T08:21:16.878Z,21.4
2019-05-16T08:24:47.331Z,21.47
2019-05-16T08:28:20.509Z,21.72
2019-05-16T08:31:52.736Z,21.95
2019-05-16T08:35:23.131Z,22.14
2019-05-16T08:38:53.114Z,22.43
2019-05-16T08:42:23.213Z,22.89
2019-05-16T08:45:53.301Z,22.97
2019-05-16T08:49:23.417Z,23.05
2019-05-16T08:52:53.570Z,23.05
2019-05-16T08:56:23.733Z,22.79
2019-05-16T08:59:53.881Z,22.53
2019-05-16T09:00:17.121Z,22.57
2019-05-16T09:03:47.260Z,22.81
2019-05-16T09:07:17.320Z,23.06
2019-05-16T09:10:59.600Z,23.39
2019-05-16T09:14:38.758Z,23.36
2019-05-16T09:18:09.207Z,23.12
2019-05-16T09:21:39.373Z,23.05
2019-05-16T09:25:09.672Z,23.02
2019-05-16T09:28:39.784Z,22.73
2019-05-16T09:32:16.896Z,22.48
2019-05-16T09:35:51.610Z,22.52
2019-05-16T09:39:21.578Z,22.82
2019-05-16T09:42:51.701Z,23.22
2019-05-16T09:46:21.846Z,23.67
2019-05-16T09:49:52.039Z,23.89
2019-05-16T09:53:22.147Z,23.73
2019-05-16T09:56:52.214Z,23.63
2019-05-16T10:00:26.719Z,24.1
2019-05-16T10:03:57.305Z,24.77
2019-05-16T10:07:28.318Z,25.02
2019-05-16T10:10:58.930Z,25.13
2019-05-16T10:14:29.033Z,24.99
2019-05-16T10:17:59.189Z,25.22
2019-05-16T10:21:29.214Z,25.12
2019-05-16T10:24:59.468Z,24.92
2019-05-16T10:28:29.583Z,25.42
2019-05-16T10:31:59.695Z,25.95
2019-05-16T10:35:30.224Z,26.59
2019-05-16T10:39:00.477Z,27.09
2019-05-16T10:42:30.621Z,27.89
2019-05-16T10:46:00.705Z,28.33
2019-05-16T10:49:36.756Z,28.77
2019-05-16T10:53:28.033Z,29.22
2019-05-16T10:57:12.952Z,29.58
2019-05-16T11:00:37.139Z,29.61
2019-05-16T11:04:37.599Z,29.39
2019-05-16T11:08:18.648Z,29.56
2019-05-16T11:11:48.780Z,30.61
2019-05-16T11:15:19.297Z,31.04
2019-05-16T11:18:49.417Z,31.37
2019-05-16T11:22:19.562Z,31.58
2019-05-16T11:25:49.647Z,31.76
2019-05-16T11:29:19.713Z,32.02
2019-05-16T11:32:49.856Z,31.44
2019-05-16T11:36:20.015Z,31.3
2019-05-16T11:39:50.112Z,30.9
2019-05-16T11:43:21.842Z,31.03
2019-05-16T11:46:52.153Z,30.79
2019-05-16T11:50:22.368Z,30.02
2019-05-16T11:53:52.571Z,30.12
2019-05-16T11:57:22.650Z,30.88
2019-05-16T12:00:52.888Z,30.78
2019-05-16T12:04:22.905Z,30.9
2019-05-16T12:07:56.500Z,30.89
2019-05-16T12:11:27.577Z,30.72
2019-05-16T12:14:58.331Z,30.83
2019-05-16T12:18:28.574Z,31.06
2019-05-16T12:21:58.525Z,31.32
2019-05-16T12:25:28.531Z,28.63
2019-05-16T12:28:58.566Z,27.05
2019-05-16T12:32:28.618Z,26.6
2019-05-16T12:35:58.709Z,25.97
2019-05-16T12:39:28.894Z,25.79
2019-05-16T12:42:59.020Z,25.38
2019-05-16T12:46:29.136Z,25.17
2019-05-16T12:49:59.260Z,25.23
2019-05-16T12:53:31.524Z,25.39
2019-05-16T12:57:02.086Z,24.94
2019-05-16T13:00:18.715Z,24.74
2019-05-16T13:03:49.237Z,24.46
2019-05-16T13:07:19.302Z,24.71
2019-05-16T13:10:49.461Z,24.84
2019-05-16T13:14:19.507Z,25.31
2019-05-16T13:17:49.594Z,25.68
2019-05-16T13:21:22.958Z,25.69
2019-05-16T13:24:53.379Z,24.94
2019-05-16T13:28:23.551Z,24.39
2019-05-16T13:31:53.766Z,24.35
2019-05-16T13:35:23.948Z,24.85
2019-05-16T13:38:56.871Z,25.5
2019-05-16T13:42:27.378Z,25.83
2019-05-16T13:45:57.729Z,25.99
2019-05-16T13:49:27.744Z,26.44
2019-05-16T13:52:58.626Z,26.64
2019-05-16T13:56:28.690Z,26.5
2019-05-16T13:59:59.012Z,26.51
2019-05-16T14:03:29.519Z,26.74
2019-05-16T14:06:59.508Z,26.97
2019-05-16T14:10:30.076Z,26.75
2019-05-16T14:14:00.280Z,26.98
2019-05-16T14:17:30.406Z,27.18
2019-05-16T14:21:00.528Z,26.86
2019-05-16T14:24:30.646Z,26.41
2019-05-16T14:28:00.809Z,26.98
2019-05-16T14:31:31.095Z,26.71
2019-05-16T14:35:01.085Z,26.72
2019-05-16T14:38:31.123Z,26.92
2019-05-16T14:42:01.260Z,26.94
2019-05-16T14:45:31.454Z,27.24
2019-05-16T14:49:01.602Z,27.48
2019-05-16T14:52:31.687Z,27.67
2019-05-16T14:56:01.802Z,27.79
2019-05-16T14:59:31.936Z,27.72
2019-05-16T15:00:18.415Z,27.61
2019-05-16T15:03:48.978Z,27.16
2019-05-16T15:07:19.539Z,26.84
2019-05-16T15:10:49.794Z,26.39
2019-05-16T15:14:19.948Z,26.57
2019-05-16T15:17:52.995Z,27.06
2019-05-16T15:21:23.181Z,27.46
2019-05-16T15:24:53.232Z,27.57
2019-05-16T15:28:26.974Z,27.19
2019-05-16T15:32:00.173Z,27.15
2019-05-16T15:35:30.613Z,27.57
2019-05-16T15:39:00.841Z,27.3
2019-05-16T15:42:30.981Z,27.43
2019-05-16T15:46:01.386Z,27.06
2019-05-16T15:49:31.588Z,27.03
2019-05-16T15:53:01.778Z,26.86
2019-05-16T15:56:32.683Z,26.73
2019-05-16T16:00:03.386Z,26.77
2019-05-16T16:03:33.405Z,26.73
2019-05-16T16:07:03.722Z,26.88
2019-05-16T16:10:37.780Z,26.51
2019-05-16T16:14:08.039Z,25.28
2019-05-16T16:17:38.382Z,24.2
2019-05-16T16:21:08.481Z,22.81
2019-05-16T16:24:38.520Z,22.08
2019-05-16T16:28:08.666Z,21.35
2019-05-16T16:31:38.695Z,20.66
2019-05-16T16:35:08.909Z,20.4
2019-05-16T16:38:38.989Z,20.25
2019-05-16T16:42:09.045Z,20.15
2019-05-16T16:45:39.085Z,19.76
2019-05-16T16:49:09.210Z,19.65
2019-05-16T16:52:39.351Z,19.55
2019-05-16T16:56:09.478Z,19.55
2019-05-16T16:59:39.554Z,19.54
2019-05-16T17:00:17.478Z,19.53
2019-05-16T17:03:47.866Z,19.45
2019-05-16T17:07:17.934Z,19.39
2019-05-16T17:10:48.044Z,19.27
2019-05-16T17:14:18.076Z,19.18
2019-05-16T17:17:48.078Z,19.09
2019-05-16T17:21:18.181Z,18.96
2019-05-16T17:24:48.210Z,18.88
2019-05-16T17:28:18.361Z,18.76
2019-05-16T17:31:56.365Z,18.69
2019-05-16T17:35:38.576Z,18.56
2019-05-16T17:39:09.098Z,18.45
2019-05-16T17:42:39.194Z,18.32
2019-05-16T17:46:09.283Z,18.24
2019-05-16T17:49:39.312Z,18.1
2019-05-16T17:53:09.494Z,18
2019-05-16T17:56:39.500Z,17.9
2019-05-16T18:00:12.876Z,17.8
2019-05-16T18:03:44.011Z,17.71
2019-05-16T18:07:14.367Z,17.64
2019-05-16T18:10:44.358Z,17.59
2019-05-16T18:14:16.949Z,17.47
2019-05-16T18:17:47.214Z,17.39
2019-05-16T18:21:17.322Z,17.29
2019-05-16T18:24:47.582Z,17.16
2019-05-16T18:28:17.819Z,17.14
2019-05-16T18:31:47.755Z,17.03
2019-05-16T18:35:17.992Z,16.99
2019-05-16T18:38:48.087Z,16.9
2019-05-16T18:42:18.166Z,16.83
2019-05-16T18:45:48.128Z,16.82
2019-05-16T18:49:18.315Z,16.8
2019-05-16T18:52:48.366Z,16.78
2019-05-16T18:56:18.421Z,16.8
2019-05-16T18:59:48.744Z,16.66
2019-05-16T19:00:17.886Z,16.62
2019-05-16T19:03:48.993Z,16.49
2019-05-16T19:07:19.252Z,16.41
2019-05-16T19:10:49.337Z,16.34
2019-05-16T19:14:19.419Z,16.28
2019-05-16T19:17:49.428Z,16.18
2019-05-16T19:21:19.576Z,16.13
2019-05-16T19:24:50.046Z,16.11
2019-05-16T19:28:19.999Z,16.06
2019-05-16T19:31:50.533Z,16.04
2019-05-16T19:35:20.880Z,16.05
2019-05-16T19:38:51.021Z,16.03
2019-05-16T19:42:21.149Z,15.98
2019-05-16T19:45:51.205Z,15.97
2019-05-16T19:49:21.315Z,15.97
2019-05-16T19:52:51.496Z,15.92
2019-05-16T19:56:21.652Z,15.96
2019-05-16T19:59:51.800Z,15.97
2019-05-16T20:03:21.943Z,15.96
2019-05-16T20:06:52.069Z,15.88
2019-05-16T20:10:22.346Z,15.87
2019-05-16T20:13:52.506Z,15.84
2019-05-16T20:17:22.612Z,15.81
2019-05-16T20:20:52.665Z,15.8
2019-05-16T20:24:22.765Z,15.76
2019-05-16T20:27:52.881Z,15.72
2019-05-16T20:31:22.960Z,15.66
2019-05-16T20:34:53.019Z,15.56
2019-05-16T20:38:23.115Z,15.54
2019-05-16T20:41:53.080Z,15.57
2019-05-16T20:45:23.285Z,15.61
2019-05-16T20:48:53.407Z,15.57
2019-05-16T20:52:23.443Z,15.53
2019-05-16T20:55:53.585Z,15.56
2019-05-16T20:59:23.717Z,15.58
2019-05-16T21:00:17.566Z,15.59
2019-05-16T21:03:47.782Z,15.59
2019-05-16T21:07:17.954Z,15.38
2019-05-16T21:10:48.163Z,15.45
2019-05-16T21:14:18.395Z,15.46
2019-05-16T21:17:48.442Z,15.39
2019-05-16T21:21:19.312Z,15.41
2019-05-16T21:24:49.562Z,15.39
2019-05-16T21:28:19.920Z,15.36
2019-05-16T21:31:50.152Z,15.34
2019-05-16T21:35:20.319Z,15.28
2019-05-16T21:38:50.451Z,15.24
2019-05-16T21:42:20.589Z,15.25
2019-05-16T21:45:50.615Z,15.31
2019-05-16T21:49:20.655Z,15.35
2019-05-16T21:52:50.689Z,15.39
2019-05-16T21:56:20.953Z,15.41
2019-05-16T21:59:50.970Z,15.46
2019-05-16T22:03:21.208Z,15.57
2019-05-16T22:06:51.311Z,15.5
2019-05-16T22:10:21.306Z,15.54
2019-05-16T22:13:51.449Z,15.64
2019-05-16T22:17:21.504Z,15.68
2019-05-16T22:20:51.663Z,15.74
2019-05-16T22:24:21.753Z,15.72
2019-05-16T22:27:51.884Z,15.68
2019-05-16T22:31:22.019Z,15.57
2019-05-16T22:34:52.228Z,15.46
2019-05-16T22:38:22.348Z,15.43
2019-05-16T22:41:52.496Z,15.35
2019-05-16T22:45:22.859Z,15.31
2019-05-16T22:48:52.937Z,15.24
2019-05-16T22:52:23.072Z,15.21
2019-05-16T22:55:53.161Z,15.19
2019-05-16T22:59:23.184Z,15.11
2019-05-16T23:00:22.053Z,15.11
2019-05-16T23:03:52.229Z,15.12
2019-05-16T23:07:22.271Z,15.15
2019-05-16T23:10:52.336Z,15.19
2019-05-16T23:14:22.425Z,15.18
2019-05-16T23:17:52.627Z,15.19
2019-05-16T23:21:22.746Z,15.16
2019-05-16T23:24:52.791Z,15.2
2019-05-16T23:28:22.830Z,15.25
2019-05-16T23:31:52.783Z,15.28
2019-05-16T23:35:22.908Z,15.3
2019-05-16T23:38:53.090Z,15.32
2019-05-16T23:42:23.191Z,15.33
2019-05-16T23:45:53.184Z,15.37
2019-05-16T23:49:23.263Z,15.36
2019-05-16T23:52:53.505Z,15.36
2019-05-16T23:56:23.593Z,15.38
2019-05-16T23:59:53.739Z,15.43
